Aérodrome :
LOGIN :

S'inscrire | Disclaimer

   EN    FR    IT 

 










Légende :    VFR   VFR Marginal   IFR   IFR Intensif   IFR Très Intensif
Visi : 
Plafond : 
>= 8 km
>= 3000ft
5 à 8 km
1000 à 3000 ft
1500m à 5 km
500 à 1000 ft
800 à 1500m
200 à 500 ft
< 800m
< 200 ft
Symboles :   Orages  Brouillard  Fortes neiges  Fortes précipitations  Vent > 20 kt
SIGMETs :   Divers  Orages  Givrage  Turbulence  Onde Orograph.  Cendres Volcan.






- Altitude de l'aérodrome : 157 ft
- Code IATA : LIL


LFQQ - Lille Lesquin

DERNIER METAR :
  • 020130Z AUTO 05003KT 5000 BR NSC 04/02 Q1029 TEMPO 2000 BR

METARs EXPIRÉS :
  • 020100Z AUTO 05005KT 5000 BR NSC 04/02 Q1029 TEMPO 2000 BR
  • 020030Z AUTO 04004KT 5000 BR NSC 04/02 Q1029 TEMPO 2000 BR
  • 020000Z AUTO 05003KT 5000 BR NSC 04/02 Q1029 TEMPO 2000 BR
  • 012330Z AUTO 05004KT 5000 BR NSC 05/02 Q1029 TEMPO 2000 BR
  • 012300Z AUTO 04005KT 5000 BR NSC 06/03 Q1029 NOSIG

TAF TAF LFQQ
Valide du 02 à 00h jusqu'au 03 à 06h UTC


012300Z 0200/0306 VRB03KT 7000 NSC
PROB40 0200/0209 2000 BR
BECMG 0221/0224 2000 BCFG
TEMPO 0300/0306 0200 FG VV///
ATIS : +33 3 20 16 19 54



MET'MAP, la Météo Aéronautique d'un coup d'oeil ! - Copyright ORBIFLY Décembre 2007 - Disclaimer

ORBIFLY MET'MAP TEAM :

Programmation & Développement : Alexandra Zaïnal
Sur une idée originale de : Baudouin d'Aumeries
Assistance à la programmation : Marc-Olivier Méhu
Soutien technique & logistique : Manuel Goepfert

Contact : metmap@orbifly.com




SOURCES & CREDITS :

   NOAA